sensor_id;sensor_type;location;lat;lon;timestamp;P1;durP1;ratioP1;P2;durP2;ratioP2
51883;SDS011;37915;53.254;6.598;2023-01-19T00:01:24;4.82;;;2.80;;
51883;SDS011;37915;53.254;6.598;2023-01-19T00:03:50;8.07;;;2.72;;
51883;SDS011;37915;53.254;6.598;2023-01-19T00:06:17;5.25;;;2.88;;
51883;SDS011;37915;53.254;6.598;2023-01-19T00:08:43;9.68;;;3.30;;
51883;SDS011;37915;53.254;6.598;2023-01-19T00:11:10;6.43;;;2.55;;
51883;SDS011;37915;53.254;6.598;2023-01-19T00:13:37;5.50;;;2.50;;
51883;SDS011;37915;53.254;6.598;2023-01-19T00:16:04;7.50;;;2.88;;
51883;SDS011;37915;53.254;6.598;2023-01-19T00:18:32;6.68;;;2.08;;
51883;SDS011;37915;53.254;6.598;2023-01-19T00:20:58;4.78;;;2.30;;
51883;SDS011;37915;53.254;6.598;2023-01-19T00:23:24;5.10;;;2.40;;
51883;SDS011;37915;53.254;6.598;2023-01-19T00:25:49;5.90;;;2.25;;
51883;SDS011;37915;53.254;6.598;2023-01-19T00:28:16;3.13;;;1.30;;
51883;SDS011;37915;53.254;6.598;2023-01-19T00:30:42;7.82;;;1.95;;
51883;SDS011;37915;53.254;6.598;2023-01-19T00:33:09;6.60;;;2.25;;
51883;SDS011;37915;53.254;6.598;2023-01-19T00:35:38;4.97;;;2.08;;
51883;SDS011;37915;53.254;6.598;2023-01-19T00:38:06;6.15;;;2.60;;
51883;SDS011;37915;53.254;6.598;2023-01-19T00:40:32;4.82;;;1.67;;
51883;SDS011;37915;53.254;6.598;2023-01-19T00:42:57;3.00;;;1.77;;
51883;SDS011;37915;53.254;6.598;2023-01-19T00:45:24;3.38;;;1.70;;
51883;SDS011;37915;53.254;6.598;2023-01-19T00:47:50;3.55;;;1.75;;
51883;SDS011;37915;53.254;6.598;2023-01-19T00:50:21;5.03;;;2.03;;
51883;SDS011;37915;53.254;6.598;2023-01-19T00:52:48;4.28;;;1.80;;
51883;SDS011;37915;53.254;6.598;2023-01-19T00:55:14;4.50;;;1.80;;
51883;SDS011;37915;53.254;6.598;2023-01-19T00:57:40;3.92;;;1.60;;
51883;SDS011;37915;53.254;6.598;2023-01-19T01:00:10;6.88;;;2.28;;
51883;SDS011;37915;53.254;6.598;2023-01-19T01:02:38;6.38;;;2.10;;
51883;SDS011;37915;53.254;6.598;2023-01-19T01:05:04;5.03;;;2.03;;
51883;SDS011;37915;53.254;6.598;2023-01-19T01:07:31;3.10;;;1.67;;
51883;SDS011;37915;53.254;6.598;2023-01-19T01:10:17;5.07;;;1.80;;
51883;SDS011;37915;53.254;6.598;2023-01-19T01:12:44;7.50;;;2.10;;
51883;SDS011;37915;53.254;6.598;2023-01-19T01:15:11;5.28;;;1.92;;
51883;SDS011;37915;53.254;6.598;2023-01-19T01:17:37;4.05;;;1.80;;
51883;SDS011;37915;53.254;6.598;2023-01-19T01:20:15;6.03;;;2.15;;
51883;SDS011;37915;53.254;6.598;2023-01-19T01:22:46;7.40;;;2.20;;
51883;SDS011;37915;53.254;6.598;2023-01-19T01:25:15;3.70;;;1.50;;
51883;SDS011;37915;53.254;6.598;2023-01-19T01:27:42;6.57;;;1.85;;
51883;SDS011;37915;53.254;6.598;2023-01-19T01:30:08;7.20;;;1.85;;
51883;SDS011;37915;53.254;6.598;2023-01-19T01:32:35;7.55;;;1.77;;
51883;SDS011;37915;53.254;6.598;2023-01-19T01:35:01;4.97;;;1.60;;
51883;SDS011;37915;53.254;6.598;2023-01-19T01:37:27;5.28;;;1.70;;
51883;SDS011;37915;53.254;6.598;2023-01-19T01:39:52;4.20;;;1.35;;
51883;SDS011;37915;53.254;6.598;2023-01-19T01:42:19;4.10;;;1.90;;
51883;SDS011;37915;53.254;6.598;2023-01-19T01:44:51;3.20;;;1.50;;
51883;SDS011;37915;53.254;6.598;2023-01-19T01:47:33;4.30;;;1.40;;
51883;SDS011;37915;53.254;6.598;2023-01-19T01:50:21;4.90;;;1.60;;
51883;SDS011;37915;53.254;6.598;2023-01-19T01:53:00;2.47;;;1.13;;
51883;SDS011;37915;53.254;6.598;2023-01-19T01:55:30;3.60;;;1.10;;
51883;SDS011;37915;53.254;6.598;2023-01-19T01:58:00;2.35;;;1.00;;
51883;SDS011;37915;53.254;6.598;2023-01-19T02:00:28;3.63;;;1.10;;
51883;SDS011;37915;53.254;6.598;2023-01-19T02:03:14;5.50;;;1.67;;
51883;SDS011;37915;53.254;6.598;2023-01-19T02:05:40;4.97;;;1.33;;
51883;SDS011;37915;53.254;6.598;2023-01-19T02:08:22;5.70;;;1.30;;
51883;SDS011;37915;53.254;6.598;2023-01-19T02:11:11;3.25;;;1.40;;
51883;SDS011;37915;53.254;6.598;2023-01-19T02:13:56;4.38;;;1.52;;
51883;SDS011;37915;53.254;6.598;2023-01-19T02:16:22;4.18;;;1.80;;
51883;SDS011;37915;53.254;6.598;2023-01-19T02:18:48;6.55;;;1.70;;
51883;SDS011;37915;53.254;6.598;2023-01-19T02:21:24;2.72;;;1.50;;
51883;SDS011;37915;53.254;6.598;2023-01-19T02:23:59;3.58;;;1.92;;
51883;SDS011;37915;53.254;6.598;2023-01-19T02:28:59;4.70;;;2.00;;
51883;SDS011;37915;53.254;6.598;2023-01-19T02:31:27;5.17;;;2.20;;
51883;SDS011;37915;53.254;6.598;2023-01-19T02:33:55;7.03;;;2.65;;
51883;SDS011;37915;53.254;6.598;2023-01-19T02:36:22;7.18;;;2.30;;
51883;SDS011;37915;53.254;6.598;2023-01-19T02:38:52;4.90;;;2.50;;
51883;SDS011;37915;53.254;6.598;2023-01-19T02:41:21;5.88;;;2.42;;
51883;SDS011;37915;53.254;6.598;2023-01-19T02:43:52;3.20;;;2.00;;
51883;SDS011;37915;53.254;6.598;2023-01-19T02:46:19;4.38;;;2.45;;
51883;SDS011;37915;53.254;6.598;2023-01-19T02:48:44;5.63;;;2.83;;
51883;SDS011;37915;53.254;6.598;2023-01-19T02:51:14;6.55;;;1.98;;
51883;SDS011;37915;53.254;6.598;2023-01-19T02:56:37;9.57;;;2.67;;
51883;SDS011;37915;53.254;6.598;2023-01-19T02:59:28;4.75;;;2.35;;
51883;SDS011;37915;53.254;6.598;2023-01-19T03:07:58;3.75;;;1.90;;
51883;SDS011;37915;53.254;6.598;2023-01-19T03:10:41;3.90;;;2.08;;
51883;SDS011;37915;53.254;6.598;2023-01-19T03:16:20;4.43;;;2.10;;
51883;SDS011;37915;53.254;6.598;2023-01-19T03:18:48;3.40;;;1.73;;
51883;SDS011;37915;53.254;6.598;2023-01-19T03:21:18;5.25;;;2.00;;
51883;SDS011;37915;53.254;6.598;2023-01-19T03:23:47;3.38;;;2.00;;
51883;SDS011;37915;53.254;6.598;2023-01-19T03:26:17;7.22;;;2.30;;
51883;SDS011;37915;53.254;6.598;2023-01-19T03:28:48;5.97;;;2.30;;
51883;SDS011;37915;53.254;6.598;2023-01-19T03:31:18;3.95;;;2.08;;
51883;SDS011;37915;53.254;6.598;2023-01-19T03:33:48;4.50;;;2.13;;
51883;SDS011;37915;53.254;6.598;2023-01-19T03:36:19;7.15;;;2.50;;
51883;SDS011;37915;53.254;6.598;2023-01-19T03:38:51;4.07;;;2.05;;
51883;SDS011;37915;53.254;6.598;2023-01-19T03:41:18;4.65;;;2.38;;
51883;SDS011;37915;53.254;6.598;2023-01-19T03:43:47;4.20;;;2.20;;
51883;SDS011;37915;53.254;6.598;2023-01-19T03:46:16;5.90;;;2.40;;
51883;SDS011;37915;53.254;6.598;2023-01-19T03:48:43;4.78;;;2.50;;
51883;SDS011;37915;53.254;6.598;2023-01-19T03:51:10;6.63;;;2.50;;
51883;SDS011;37915;53.254;6.598;2023-01-19T03:53:37;5.65;;;2.00;;
51883;SDS011;37915;53.254;6.598;2023-01-19T03:56:03;7.35;;;2.50;;
51883;SDS011;37915;53.254;6.598;2023-01-19T03:58:30;4.80;;;2.25;;
51883;SDS011;37915;53.254;6.598;2023-01-19T04:00:55;5.93;;;2.67;;
51883;SDS011;37915;53.254;6.598;2023-01-19T04:03:21;4.90;;;2.83;;
51883;SDS011;37915;53.254;6.598;2023-01-19T04:05:47;4.03;;;2.40;;
51883;SDS011;37915;53.254;6.598;2023-01-19T04:08:13;6.32;;;3.05;;
51883;SDS011;37915;53.254;6.598;2023-01-19T04:10:39;5.07;;;2.78;;
51883;SDS011;37915;53.254;6.598;2023-01-19T04:13:04;5.90;;;2.55;;
51883;SDS011;37915;53.254;6.598;2023-01-19T04:15:30;8.70;;;2.70;;
51883;SDS011;37915;53.254;6.598;2023-01-19T04:17:57;7.15;;;2.47;;
51883;SDS011;37915;53.254;6.598;2023-01-19T04:20:23;4.22;;;2.40;;
51883;SDS011;37915;53.254;6.598;2023-01-19T04:22:51;4.07;;;2.30;;
51883;SDS011;37915;53.254;6.598;2023-01-19T04:25:16;8.52;;;3.00;;
51883;SDS011;37915;53.254;6.598;2023-01-19T04:27:42;5.40;;;2.50;;
51883;SDS011;37915;53.254;6.598;2023-01-19T04:30:08;7.40;;;2.95;;
51883;SDS011;37915;53.254;6.598;2023-01-19T04:32:34;6.57;;;2.95;;
51883;SDS011;37915;53.254;6.598;2023-01-19T04:35:00;5.45;;;2.80;;
51883;SDS011;37915;53.254;6.598;2023-01-19T04:37:26;6.18;;;2.55;;
51883;SDS011;37915;53.254;6.598;2023-01-19T04:39:52;5.00;;;2.55;;
51883;SDS011;37915;53.254;6.598;2023-01-19T04:42:18;6.13;;;2.95;;
51883;SDS011;37915;53.254;6.598;2023-01-19T04:44:43;8.45;;;3.20;;
51883;SDS011;37915;53.254;6.598;2023-01-19T04:47:09;7.65;;;2.67;;
51883;SDS011;37915;53.254;6.598;2023-01-19T04:49:35;6.82;;;2.92;;
51883;SDS011;37915;53.254;6.598;2023-01-19T04:52:04;6.47;;;2.95;;
51883;SDS011;37915;53.254;6.598;2023-01-19T04:54:30;5.65;;;2.78;;
51883;SDS011;37915;53.254;6.598;2023-01-19T04:56:56;6.35;;;3.10;;
51883;SDS011;37915;53.254;6.598;2023-01-19T04:59:22;6.20;;;3.13;;
51883;SDS011;37915;53.254;6.598;2023-01-19T05:01:48;8.13;;;3.10;;
51883;SDS011;37915;53.254;6.598;2023-01-19T05:04:14;7.45;;;3.00;;
51883;SDS011;37915;53.254;6.598;2023-01-19T05:06:39;7.30;;;3.10;;
51883;SDS011;37915;53.254;6.598;2023-01-19T05:09:05;7.95;;;3.08;;
51883;SDS011;37915;53.254;6.598;2023-01-19T05:11:33;6.55;;;2.97;;
51883;SDS011;37915;53.254;6.598;2023-01-19T05:13:59;8.30;;;3.05;;
51883;SDS011;37915;53.254;6.598;2023-01-19T05:16:25;6.13;;;2.88;;
51883;SDS011;37915;53.254;6.598;2023-01-19T05:18:51;7.78;;;2.92;;
51883;SDS011;37915;53.254;6.598;2023-01-19T05:21:17;8.35;;;3.05;;
51883;SDS011;37915;53.254;6.598;2023-01-19T05:23:42;7.85;;;3.05;;
51883;SDS011;37915;53.254;6.598;2023-01-19T05:26:08;5.85;;;2.45;;
51883;SDS011;37915;53.254;6.598;2023-01-19T05:28:34;5.40;;;2.92;;
51883;SDS011;37915;53.254;6.598;2023-01-19T05:31:01;6.97;;;2.67;;
51883;SDS011;37915;53.254;6.598;2023-01-19T05:33:26;6.47;;;2.38;;
51883;SDS011;37915;53.254;6.598;2023-01-19T05:35:52;5.35;;;2.35;;
51883;SDS011;37915;53.254;6.598;2023-01-19T05:38:18;8.90;;;2.22;;
51883;SDS011;37915;53.254;6.598;2023-01-19T05:40:44;4.25;;;1.67;;
51883;SDS011;37915;53.254;6.598;2023-01-19T05:43:10;5.10;;;1.88;;
51883;SDS011;37915;53.254;6.598;2023-01-19T05:45:36;5.07;;;1.73;;
51883;SDS011;37915;53.254;6.598;2023-01-19T05:48:03;5.43;;;1.55;;
51883;SDS011;37915;53.254;6.598;2023-01-19T05:50:30;6.93;;;2.50;;
51883;SDS011;37915;53.254;6.598;2023-01-19T05:52:56;4.20;;;1.45;;
51883;SDS011;37915;53.254;6.598;2023-01-19T05:55:23;4.07;;;1.20;;
51883;SDS011;37915;53.254;6.598;2023-01-19T05:57:50;7.15;;;2.08;;
51883;SDS011;37915;53.254;6.598;2023-01-19T06:00:15;6.03;;;1.20;;
51883;SDS011;37915;53.254;6.598;2023-01-19T06:02:41;7.70;;;1.35;;
51883;SDS011;37915;53.254;6.598;2023-01-19T06:05:08;5.70;;;1.50;;
51883;SDS011;37915;53.254;6.598;2023-01-19T06:07:35;4.78;;;1.30;;
51883;SDS011;37915;53.254;6.598;2023-01-19T06:10:00;5.32;;;1.40;;
51883;SDS011;37915;53.254;6.598;2023-01-19T06:12:26;4.47;;;1.45;;
51883;SDS011;37915;53.254;6.598;2023-01-19T06:14:52;5.97;;;1.25;;
51883;SDS011;37915;53.254;6.598;2023-01-19T06:17:18;5.70;;;1.10;;
51883;SDS011;37915;53.254;6.598;2023-01-19T06:19:44;7.07;;;1.48;;
51883;SDS011;37915;53.254;6.598;2023-01-19T06:22:10;3.13;;;1.10;;
51883;SDS011;37915;53.254;6.598;2023-01-19T06:24:35;8.50;;;1.55;;
51883;SDS011;37915;53.254;6.598;2023-01-19T06:27:01;5.65;;;1.38;;
51883;SDS011;37915;53.254;6.598;2023-01-19T06:29:27;6.82;;;1.45;;
51883;SDS011;37915;53.254;6.598;2023-01-19T06:31:53;7.63;;;1.48;;
51883;SDS011;37915;53.254;6.598;2023-01-19T06:34:18;6.35;;;1.30;;
51883;SDS011;37915;53.254;6.598;2023-01-19T06:36:44;4.72;;;1.90;;
51883;SDS011;37915;53.254;6.598;2023-01-19T06:39:10;3.55;;;1.40;;
51883;SDS011;37915;53.254;6.598;2023-01-19T06:41:36;4.28;;;1.20;;
51883;SDS011;37915;53.254;6.598;2023-01-19T06:44:03;6.90;;;1.65;;
51883;SDS011;37915;53.254;6.598;2023-01-19T06:46:29;3.45;;;1.25;;
51883;SDS011;37915;53.254;6.598;2023-01-19T06:48:55;5.05;;;1.30;;
51883;SDS011;37915;53.254;6.598;2023-01-19T06:51:21;3.47;;;1.20;;
51883;SDS011;37915;53.254;6.598;2023-01-19T06:53:47;10.23;;;2.40;;
51883;SDS011;37915;53.254;6.598;2023-01-19T06:56:13;5.28;;;1.60;;
51883;SDS011;37915;53.254;6.598;2023-01-19T06:58:39;6.65;;;1.40;;
51883;SDS011;37915;53.254;6.598;2023-01-19T07:01:06;8.40;;;1.80;;
51883;SDS011;37915;53.254;6.598;2023-01-19T07:03:33;6.28;;;1.60;;
51883;SDS011;37915;53.254;6.598;2023-01-19T07:06:00;9.68;;;1.75;;
51883;SDS011;37915;53.254;6.598;2023-01-19T07:08:27;10.73;;;2.15;;
51883;SDS011;37915;53.254;6.598;2023-01-19T07:13:45;8.52;;;1.65;;
51883;SDS011;37915;53.254;6.598;2023-01-19T07:16:16;11.88;;;1.92;;
51883;SDS011;37915;53.254;6.598;2023-01-19T07:18:42;8.18;;;1.90;;
51883;SDS011;37915;53.254;6.598;2023-01-19T07:21:08;6.75;;;1.67;;
51883;SDS011;37915;53.254;6.598;2023-01-19T07:23:33;6.05;;;1.55;;
51883;SDS011;37915;53.254;6.598;2023-01-19T07:25:59;6.75;;;1.60;;
51883;SDS011;37915;53.254;6.598;2023-01-19T07:28:26;8.32;;;2.50;;
51883;SDS011;37915;53.254;6.598;2023-01-19T07:30:53;11.35;;;2.45;;
51883;SDS011;37915;53.254;6.598;2023-01-19T07:33:19;9.20;;;2.30;;
51883;SDS011;37915;53.254;6.598;2023-01-19T07:35:52;5.13;;;1.92;;
51883;SDS011;37915;53.254;6.598;2023-01-19T07:38:18;7.28;;;2.35;;
51883;SDS011;37915;53.254;6.598;2023-01-19T07:40:44;4.63;;;1.42;;
51883;SDS011;37915;53.254;6.598;2023-01-19T07:43:13;5.13;;;1.67;;
51883;SDS011;37915;53.254;6.598;2023-01-19T07:45:39;7.25;;;1.58;;
51883;SDS011;37915;53.254;6.598;2023-01-19T07:48:05;10.95;;;2.38;;
51883;SDS011;37915;53.254;6.598;2023-01-19T07:50:31;20.38;;;3.13;;
51883;SDS011;37915;53.254;6.598;2023-01-19T07:52:56;8.27;;;2.22;;
51883;SDS011;37915;53.254;6.598;2023-01-19T07:55:30;12.95;;;2.70;;
51883;SDS011;37915;53.254;6.598;2023-01-19T07:57:55;12.10;;;2.55;;
51883;SDS011;37915;53.254;6.598;2023-01-19T08:00:22;17.40;;;2.58;;
51883;SDS011;37915;53.254;6.598;2023-01-19T08:02:57;12.70;;;3.03;;
51883;SDS011;37915;53.254;6.598;2023-01-19T08:05:23;13.10;;;2.58;;
51883;SDS011;37915;53.254;6.598;2023-01-19T08:07:49;9.95;;;1.90;;
51883;SDS011;37915;53.254;6.598;2023-01-19T08:10:15;6.15;;;2.25;;
51883;SDS011;37915;53.254;6.598;2023-01-19T08:12:41;12.35;;;3.08;;
51883;SDS011;37915;53.254;6.598;2023-01-19T08:15:07;11.73;;;2.13;;
51883;SDS011;37915;53.254;6.598;2023-01-19T08:17:34;14.13;;;2.42;;
51883;SDS011;37915;53.254;6.598;2023-01-19T08:20:00;10.10;;;2.40;;
51883;SDS011;37915;53.254;6.598;2023-01-19T08:22:26;7.35;;;2.03;;
51883;SDS011;37915;53.254;6.598;2023-01-19T08:24:52;13.43;;;2.28;;
51883;SDS011;37915;53.254;6.598;2023-01-19T08:27:18;10.63;;;2.70;;
51883;SDS011;37915;53.254;6.598;2023-01-19T08:29:44;6.60;;;1.83;;
51883;SDS011;37915;53.254;6.598;2023-01-19T08:32:10;7.53;;;2.40;;
51883;SDS011;37915;53.254;6.598;2023-01-19T08:34:36;11.88;;;2.45;;
51883;SDS011;37915;53.254;6.598;2023-01-19T08:37:02;11.95;;;2.03;;
51883;SDS011;37915;53.254;6.598;2023-01-19T08:39:27;15.18;;;2.45;;
51883;SDS011;37915;53.254;6.598;2023-01-19T08:41:53;8.82;;;2.08;;
51883;SDS011;37915;53.254;6.598;2023-01-19T08:44:19;8.85;;;2.17;;
51883;SDS011;37915;53.254;6.598;2023-01-19T08:46:45;9.88;;;2.17;;
51883;SDS011;37915;53.254;6.598;2023-01-19T08:49:11;6.25;;;2.20;;
51883;SDS011;37915;53.254;6.598;2023-01-19T08:51:37;7.40;;;1.77;;
51883;SDS011;37915;53.254;6.598;2023-01-19T08:54:03;9.63;;;1.80;;
51883;SDS011;37915;53.254;6.598;2023-01-19T08:56:29;10.60;;;2.67;;
51883;SDS011;37915;53.254;6.598;2023-01-19T08:58:54;10.25;;;2.25;;
51883;SDS011;37915;53.254;6.598;2023-01-19T09:01:20;10.98;;;2.13;;
51883;SDS011;37915;53.254;6.598;2023-01-19T09:03:46;10.27;;;2.15;;
51883;SDS011;37915;53.254;6.598;2023-01-19T09:06:15;6.00;;;1.80;;
51883;SDS011;37915;53.254;6.598;2023-01-19T09:08:42;8.38;;;2.72;;
51883;SDS011;37915;53.254;6.598;2023-01-19T09:11:09;14.02;;;2.17;;
51883;SDS011;37915;53.254;6.598;2023-01-19T09:13:35;9.77;;;2.55;;
51883;SDS011;37915;53.254;6.598;2023-01-19T09:16:01;13.30;;;2.20;;
51883;SDS011;37915;53.254;6.598;2023-01-19T09:18:27;13.82;;;2.47;;
51883;SDS011;37915;53.254;6.598;2023-01-19T09:20:55;12.80;;;2.47;;
51883;SDS011;37915;53.254;6.598;2023-01-19T09:23:21;9.80;;;2.70;;
51883;SDS011;37915;53.254;6.598;2023-01-19T09:25:47;7.95;;;1.95;;
51883;SDS011;37915;53.254;6.598;2023-01-19T09:28:14;7.18;;;2.00;;
51883;SDS011;37915;53.254;6.598;2023-01-19T09:30:41;6.15;;;1.90;;
51883;SDS011;37915;53.254;6.598;2023-01-19T09:33:09;9.60;;;2.42;;
51883;SDS011;37915;53.254;6.598;2023-01-19T09:35:36;11.43;;;2.13;;
51883;SDS011;37915;53.254;6.598;2023-01-19T09:38:03;16.65;;;2.72;;
51883;SDS011;37915;53.254;6.598;2023-01-19T09:40:31;10.43;;;2.10;;
51883;SDS011;37915;53.254;6.598;2023-01-19T09:43:15;8.15;;;2.13;;
51883;SDS011;37915;53.254;6.598;2023-01-19T09:45:52;8.85;;;2.50;;
51883;SDS011;37915;53.254;6.598;2023-01-19T09:51:21;11.57;;;1.95;;
51883;SDS011;37915;53.254;6.598;2023-01-19T09:53:57;11.10;;;2.20;;
51883;SDS011;37915;53.254;6.598;2023-01-19T09:56:37;9.77;;;2.00;;
51883;SDS011;37915;53.254;6.598;2023-01-19T09:59:12;6.97;;;1.98;;
51883;SDS011;37915;53.254;6.598;2023-01-19T10:01:45;8.05;;;2.10;;
51883;SDS011;37915;53.254;6.598;2023-01-19T10:06:51;8.27;;;2.00;;
51883;SDS011;37915;53.254;6.598;2023-01-19T10:09:26;7.03;;;2.05;;
51883;SDS011;37915;53.254;6.598;2023-01-19T10:12:13;6.18;;;2.30;;
51883;SDS011;37915;53.254;6.598;2023-01-19T10:14:54;9.18;;;1.58;;
51883;SDS011;37915;53.254;6.598;2023-01-19T10:17:46;9.13;;;2.47;;
51883;SDS011;37915;53.254;6.598;2023-01-19T10:20:34;12.23;;;2.42;;
51883;SDS011;37915;53.254;6.598;2023-01-19T10:23:05;9.00;;;3.22;;
51883;SDS011;37915;53.254;6.598;2023-01-19T10:25:52;12.90;;;2.72;;
51883;SDS011;37915;53.254;6.598;2023-01-19T10:28:20;6.65;;;2.15;;
51883;SDS011;37915;53.254;6.598;2023-01-19T10:30:49;8.80;;;1.83;;
51883;SDS011;37915;53.254;6.598;2023-01-19T10:33:17;9.90;;;2.22;;
51883;SDS011;37915;53.254;6.598;2023-01-19T10:35:43;9.48;;;2.05;;
51883;SDS011;37915;53.254;6.598;2023-01-19T10:38:12;11.13;;;2.20;;
51883;SDS011;37915;53.254;6.598;2023-01-19T10:40:51;6.93;;;3.08;;
51883;SDS011;37915;53.254;6.598;2023-01-19T10:46:03;10.98;;;2.25;;
51883;SDS011;37915;53.254;6.598;2023-01-19T10:48:41;9.32;;;2.20;;
51883;SDS011;37915;53.254;6.598;2023-01-19T10:51:08;11.65;;;2.67;;
51883;SDS011;37915;53.254;6.598;2023-01-19T10:53:35;7.50;;;2.38;;
51883;SDS011;37915;53.254;6.598;2023-01-19T10:56:10;8.65;;;1.90;;
51883;SDS011;37915;53.254;6.598;2023-01-19T10:58:41;9.23;;;1.90;;
51883;SDS011;37915;53.254;6.598;2023-01-19T11:01:25;11.95;;;2.13;;
51883;SDS011;37915;53.254;6.598;2023-01-19T11:03:52;18.50;;;2.67;;
51883;SDS011;37915;53.254;6.598;2023-01-19T11:06:25;8.68;;;1.92;;
51883;SDS011;37915;53.254;6.598;2023-01-19T11:08:54;11.15;;;2.03;;
51883;SDS011;37915;53.254;6.598;2023-01-19T11:11:48;10.93;;;2.10;;
51883;SDS011;37915;53.254;6.598;2023-01-19T11:14:22;10.80;;;2.40;;
51883;SDS011;37915;53.254;6.598;2023-01-19T11:19:20;9.55;;;2.22;;
51883;SDS011;37915;53.254;6.598;2023-01-19T11:22:07;12.63;;;2.20;;
51883;SDS011;37915;53.254;6.598;2023-01-19T11:24:47;10.07;;;2.00;;
51883;SDS011;37915;53.254;6.598;2023-01-19T11:27:18;10.48;;;2.53;;
51883;SDS011;37915;53.254;6.598;2023-01-19T11:29:48;9.88;;;2.38;;
51883;SDS011;37915;53.254;6.598;2023-01-19T11:32:24;11.68;;;1.92;;
51883;SDS011;37915;53.254;6.598;2023-01-19T11:34:51;10.70;;;2.35;;
51883;SDS011;37915;53.254;6.598;2023-01-19T11:42:15;8.02;;;2.17;;
51883;SDS011;37915;53.254;6.598;2023-01-19T11:47:27;12.80;;;2.42;;
51883;SDS011;37915;53.254;6.598;2023-01-19T11:49:59;5.55;;;1.75;;
51883;SDS011;37915;53.254;6.598;2023-01-19T11:52:27;9.23;;;2.20;;
51883;SDS011;37915;53.254;6.598;2023-01-19T11:55:00;11.35;;;1.80;;
51883;SDS011;37915;53.254;6.598;2023-01-19T11:57:47;8.32;;;2.45;;
51883;SDS011;37915;53.254;6.598;2023-01-19T12:00:21;10.07;;;2.15;;
51883;SDS011;37915;53.254;6.598;2023-01-19T12:02:52;7.50;;;1.75;;
51883;SDS011;37915;53.254;6.598;2023-01-19T12:05:28;6.05;;;1.35;;
51883;SDS011;37915;53.254;6.598;2023-01-19T12:07:57;8.02;;;1.92;;
51883;SDS011;37915;53.254;6.598;2023-01-19T12:10:28;5.10;;;1.35;;
51883;SDS011;37915;53.254;6.598;2023-01-19T12:12:55;8.98;;;2.00;;
51883;SDS011;37915;53.254;6.598;2023-01-19T12:18:01;11.05;;;1.95;;
51883;SDS011;37915;53.254;6.598;2023-01-19T12:20:41;9.35;;;2.10;;
51883;SDS011;37915;53.254;6.598;2023-01-19T12:23:15;9.48;;;1.90;;
51883;SDS011;37915;53.254;6.598;2023-01-19T12:28:47;6.28;;;1.98;;
51883;SDS011;37915;53.254;6.598;2023-01-19T12:31:15;10.02;;;2.03;;
51883;SDS011;37915;53.254;6.598;2023-01-19T12:33:43;9.63;;;1.77;;
51883;SDS011;37915;53.254;6.598;2023-01-19T12:41:45;6.80;;;1.55;;
51883;SDS011;37915;53.254;6.598;2023-01-19T13:00:47;6.40;;;1.40;;
51883;SDS011;37915;53.254;6.598;2023-01-19T13:21:26;12.25;;;2.10;;
51883;SDS011;37915;53.254;6.598;2023-01-19T13:23:59;14.02;;;2.85;;
51883;SDS011;37915;53.254;6.598;2023-01-19T13:26:28;8.50;;;2.35;;
51883;SDS011;37915;53.254;6.598;2023-01-19T13:28:59;7.13;;;1.83;;
51883;SDS011;37915;53.254;6.598;2023-01-19T13:31:46;6.25;;;2.00;;
51883;SDS011;37915;53.254;6.598;2023-01-19T13:34:27;7.88;;;2.17;;
51883;SDS011;37915;53.254;6.598;2023-01-19T13:37:02;7.10;;;2.00;;
51883;SDS011;37915;53.254;6.598;2023-01-19T13:39:34;11.40;;;2.30;;
51883;SDS011;37915;53.254;6.598;2023-01-19T13:42:14;8.60;;;2.03;;
51883;SDS011;37915;53.254;6.598;2023-01-19T13:44:51;7.20;;;1.55;;
51883;SDS011;37915;53.254;6.598;2023-01-19T13:47:22;5.07;;;1.98;;
51883;SDS011;37915;53.254;6.598;2023-01-19T13:50:04;4.97;;;1.40;;
51883;SDS011;37915;53.254;6.598;2023-01-19T13:52:30;4.68;;;1.73;;
51883;SDS011;37915;53.254;6.598;2023-01-19T14:00:00;8.65;;;2.08;;
51883;SDS011;37915;53.254;6.598;2023-01-19T14:02:29;8.18;;;2.10;;
51883;SDS011;37915;53.254;6.598;2023-01-19T14:04:54;6.10;;;1.65;;
51883;SDS011;37915;53.254;6.598;2023-01-19T14:07:21;7.65;;;2.03;;
51883;SDS011;37915;53.254;6.598;2023-01-19T14:10:06;10.60;;;2.25;;
51883;SDS011;37915;53.254;6.598;2023-01-19T14:12:36;6.72;;;1.65;;
51883;SDS011;37915;53.254;6.598;2023-01-19T14:15:02;8.55;;;2.10;;
51883;SDS011;37915;53.254;6.598;2023-01-19T14:17:34;3.22;;;1.33;;
51883;SDS011;37915;53.254;6.598;2023-01-19T14:20:00;10.52;;;1.70;;
51883;SDS011;37915;53.254;6.598;2023-01-19T14:22:36;6.82;;;1.52;;
51883;SDS011;37915;53.254;6.598;2023-01-19T14:27:50;5.72;;;1.20;;
51883;SDS011;37915;53.254;6.598;2023-01-19T14:30:20;2.53;;;1.10;;
51883;SDS011;37915;53.254;6.598;2023-01-19T14:32:46;4.38;;;1.20;;
51883;SDS011;37915;53.254;6.598;2023-01-19T14:35:24;2.60;;;1.10;;
51883;SDS011;37915;53.254;6.598;2023-01-19T14:37:50;5.65;;;1.38;;
51883;SDS011;37915;53.254;6.598;2023-01-19T14:40:18;4.53;;;1.30;;
51883;SDS011;37915;53.254;6.598;2023-01-19T14:42:52;4.78;;;1.30;;
51883;SDS011;37915;53.254;6.598;2023-01-19T14:45:22;5.68;;;1.85;;
51883;SDS011;37915;53.254;6.598;2023-01-19T14:47:57;5.45;;;1.20;;
51883;SDS011;37915;53.254;6.598;2023-01-19T14:52:54;12.30;;;1.55;;
51883;SDS011;37915;53.254;6.598;2023-01-19T14:55:24;3.80;;;1.80;;
51883;SDS011;37915;53.254;6.598;2023-01-19T14:57:55;4.82;;;1.10;;
51883;SDS011;37915;53.254;6.598;2023-01-19T15:00:21;6.05;;;1.45;;
51883;SDS011;37915;53.254;6.598;2023-01-19T15:02:47;12.10;;;1.80;;
51883;SDS011;37915;53.254;6.598;2023-01-19T15:05:13;4.88;;;1.67;;
51883;SDS011;37915;53.254;6.598;2023-01-19T15:07:39;3.88;;;1.30;;
51883;SDS011;37915;53.254;6.598;2023-01-19T15:10:18;2.80;;;1.10;;
51883;SDS011;37915;53.254;6.598;2023-01-19T15:12:47;3.33;;;1.48;;
51883;SDS011;37915;53.254;6.598;2023-01-19T15:15:15;3.92;;;1.35;;
51883;SDS011;37915;53.254;6.598;2023-01-19T15:17:44;5.00;;;1.60;;
51883;SDS011;37915;53.254;6.598;2023-01-19T15:20:14;2.72;;;1.08;;
51883;SDS011;37915;53.254;6.598;2023-01-19T15:22:41;4.25;;;1.10;;
51883;SDS011;37915;53.254;6.598;2023-01-19T15:25:08;4.18;;;1.35;;
51883;SDS011;37915;53.254;6.598;2023-01-19T15:27:36;2.95;;;1.38;;
51883;SDS011;37915;53.254;6.598;2023-01-19T15:30:02;5.20;;;1.40;;
51883;SDS011;37915;53.254;6.598;2023-01-19T15:32:27;5.50;;;1.25;;
51883;SDS011;37915;53.254;6.598;2023-01-19T15:34:53;5.40;;;1.20;;
51883;SDS011;37915;53.254;6.598;2023-01-19T15:37:19;6.85;;;1.50;;
51883;SDS011;37915;53.254;6.598;2023-01-19T15:39:45;6.43;;;1.50;;
51883;SDS011;37915;53.254;6.598;2023-01-19T15:42:11;2.13;;;1.00;;
51883;SDS011;37915;53.254;6.598;2023-01-19T15:44:38;3.30;;;1.30;;
51883;SDS011;37915;53.254;6.598;2023-01-19T15:47:04;4.35;;;1.40;;
51883;SDS011;37915;53.254;6.598;2023-01-19T15:49:29;3.13;;;1.10;;
51883;SDS011;37915;53.254;6.598;2023-01-19T15:51:55;4.47;;;1.25;;
51883;SDS011;37915;53.254;6.598;2023-01-19T15:54:21;4.88;;;1.23;;
51883;SDS011;37915;53.254;6.598;2023-01-19T15:56:46;6.35;;;1.50;;
51883;SDS011;37915;53.254;6.598;2023-01-19T15:59:12;7.60;;;1.58;;
51883;SDS011;37915;53.254;6.598;2023-01-19T16:01:38;4.30;;;1.70;;
51883;SDS011;37915;53.254;6.598;2023-01-19T16:04:05;5.55;;;2.28;;
51883;SDS011;37915;53.254;6.598;2023-01-19T16:06:32;5.63;;;2.13;;
51883;SDS011;37915;53.254;6.598;2023-01-19T16:08:57;8.57;;;1.60;;
51883;SDS011;37915;53.254;6.598;2023-01-19T16:11:25;4.38;;;2.28;;
51883;SDS011;37915;53.254;6.598;2023-01-19T16:13:53;6.78;;;1.88;;
51883;SDS011;37915;53.254;6.598;2023-01-19T16:16:20;5.78;;;1.85;;
51883;SDS011;37915;53.254;6.598;2023-01-19T16:18:46;9.07;;;2.28;;
51883;SDS011;37915;53.254;6.598;2023-01-19T16:21:12;5.70;;;1.83;;
51883;SDS011;37915;53.254;6.598;2023-01-19T16:23:38;4.97;;;1.25;;
51883;SDS011;37915;53.254;6.598;2023-01-19T16:26:05;4.40;;;1.67;;
51883;SDS011;37915;53.254;6.598;2023-01-19T16:28:46;8.20;;;1.80;;